createdAt,value
2022-09-04T00:01:02.684Z,100744.66
2022-09-04T00:04:27.207Z,100744.66
2022-09-04T00:07:39.498Z,100747.06
2022-09-04T00:10:47.721Z,100749.66
2022-09-04T00:14:00.237Z,100749.59
2022-09-04T00:17:14.521Z,100749.53
2022-09-04T00:20:28.832Z,100745.13
2022-09-04T00:23:42.647Z,100742.28
2022-09-04T00:26:49.197Z,100738.75
2022-09-04T00:30:11.738Z,100741.94
2022-09-04T00:33:32.573Z,100739.00
2022-09-04T00:36:40.928Z,100728.06
2022-09-04T00:40:09.259Z,100734.81
2022-09-04T00:43:27.442Z,100738.59
2022-09-04T00:46:56.333Z,100730.75
2022-09-04T00:50:12.006Z,100730.44
2022-09-04T00:53:36.552Z,100729.63
2022-09-04T00:57:03.482Z,100731.87
2022-09-04T01:00:12.759Z,100738.84
2022-09-04T01:03:18.634Z,100734.63
2022-09-04T01:06:37.998Z,100743.38
2022-09-04T01:09:53.984Z,100750.47
2022-09-04T01:13:12.987Z,100749.22
2022-09-04T01:16:23.072Z,100751.56
2022-09-04T01:20:03.436Z,100757.91
2022-09-04T01:23:24.611Z,100758.31
2022-09-04T01:26:36.131Z,100755.47
2022-09-04T01:30:01.071Z,100760.69
2022-09-04T01:33:27.593Z,100762.53
2022-09-04T01:36:55.313Z,100767.97
2022-09-04T01:40:16.217Z,100768.66
2022-09-04T01:43:21.411Z,100772.87
2022-09-04T01:46:32.912Z,100761.75
2022-09-04T01:50:01.941Z,100763.41
2022-09-04T01:53:27.992Z,100750.81
2022-09-04T01:56:54.436Z,100756.81
2022-09-04T02:00:13.207Z,100758.47
2022-09-04T02:03:31.683Z,100747.78
2022-09-04T02:06:53.723Z,100766.63
2022-09-04T02:10:34.332Z,100760.00
2022-09-04T02:14:14.420Z,100766.63
2022-09-04T02:17:25.939Z,100756.00
2022-09-04T02:20:30.971Z,100769.37
2022-09-04T02:23:44.333Z,100777.62
2022-09-04T02:26:55.606Z,100770.22
2022-09-04T02:30:24.827Z,100759.16
2022-09-04T02:33:35.510Z,100760.69
2022-09-04T02:37:27.844Z,100766.37
2022-09-04T02:41:15.080Z,100763.91
2022-09-04T02:44:51.219Z,100761.69
2022-09-04T02:48:18.548Z,100764.34
2022-09-04T02:51:43.684Z,100756.41
2022-09-04T02:54:57.760Z,100756.88
2022-09-04T02:58:29.626Z,100754.88
2022-09-04T03:01:49.756Z,100755.63
2022-09-04T03:05:00.663Z,100754.94
2022-09-04T03:08:20.932Z,100758.56
2022-09-04T03:11:35.396Z,100762.25
2022-09-04T03:15:01.177Z,100761.28
2022-09-04T03:18:19.757Z,100755.13
2022-09-04T03:21:43.646Z,100762.84
2022-09-04T03:25:07.452Z,100757.44
2022-09-04T03:28:40.115Z,100759.03
2022-09-04T03:31:58.684Z,100763.38
2022-09-04T03:35:29.939Z,100768.00
2022-09-04T03:39:02.514Z,100773.09
2022-09-04T03:42:28.630Z,100788.12
2022-09-04T03:45:56.633Z,100786.53
2022-09-04T03:49:22.766Z,100790.81
2022-09-04T03:52:47.100Z,100792.69
2022-09-04T03:56:01.393Z,100804.03
2022-09-04T03:59:07.058Z,100805.91
2022-09-04T04:02:17.343Z,100796.00
2022-09-04T04:05:41.049Z,100810.72
2022-09-04T04:08:46.398Z,100808.12
2022-09-04T04:11:53.384Z,100811.78
2022-09-04T04:15:06.493Z,100813.41
2022-09-04T04:18:27.859Z,100822.59
2022-09-04T04:21:57.768Z,100817.97
2022-09-04T04:25:13.646Z,100820.25
2022-09-04T04:28:34.348Z,100820.13
2022-09-04T04:32:24.355Z,100829.31
2022-09-04T04:35:33.175Z,100834.31
2022-09-04T04:39:05.140Z,100834.28
2022-09-04T04:42:34.910Z,100835.69
2022-09-04T04:46:10.490Z,100838.19
2022-09-04T04:49:39.913Z,100847.25
2022-09-04T04:52:49.247Z,100852.31
2022-09-04T04:56:16.344Z,100850.84
2022-09-04T04:59:58.348Z,100857.28
2022-09-04T05:03:19.660Z,100869.28
2022-09-04T05:06:29.086Z,100853.09
2022-09-04T05:09:48.799Z,100855.72
2022-09-04T05:13:00.461Z,100863.59
2022-09-04T05:16:23.033Z,100866.16
2022-09-04T05:19:47.635Z,100863.22
2022-09-04T05:23:28.877Z,100860.28
2022-09-04T05:26:37.838Z,100874.94
2022-09-04T05:29:57.431Z,100876.81
2022-09-04T05:33:22.310Z,100884.78
2022-09-04T05:36:40.450Z,100879.84
2022-09-04T05:40:20.371Z,100885.47
2022-09-04T05:43:29.190Z,100881.25
2022-09-04T05:46:45.609Z,100882.91
2022-09-04T05:50:32.051Z,100890.03
2022-09-04T05:54:02.557Z,100899.19
2022-09-04T05:57:26.567Z,100896.50
2022-09-04T06:00:52.499Z,100903.66
2022-09-04T06:04:13.547Z,100900.94
2022-09-04T06:07:31.579Z,100897.41
2022-09-04T06:11:02.424Z,100889.91
2022-09-04T06:14:32.622Z,100881.22
2022-09-04T06:18:13.742Z,100880.84
2022-09-04T06:21:36.231Z,100877.66
2022-09-04T06:24:59.733Z,100878.81
2022-09-04T06:28:02.316Z,100880.75
2022-09-04T06:31:05.283Z,100893.38
2022-09-04T06:34:07.843Z,100889.31
2022-09-04T06:37:45.897Z,100889.66
2022-09-04T06:41:11.204Z,100889.97
2022-09-04T06:44:32.901Z,100889.81
2022-09-04T06:47:47.475Z,100885.81
2022-09-04T06:51:24.028Z,100902.75
2022-09-04T06:54:35.765Z,100896.44
2022-09-04T06:58:12.129Z,100893.16
2022-09-04T07:01:26.358Z,100900.28
2022-09-04T07:04:40.431Z,100896.59
2022-09-04T07:08:00.759Z,100906.06
2022-09-04T07:11:18.592Z,100911.53
2022-09-04T07:14:55.535Z,100903.66
2022-09-04T07:18:26.544Z,100912.63
2022-09-04T07:21:45.078Z,100913.25
2022-09-04T07:25:09.326Z,100902.50
2022-09-04T07:28:57.250Z,100908.75
2022-09-04T07:32:00.569Z,100925.03
2022-09-04T07:35:14.083Z,100911.97
2022-09-04T07:38:40.684Z,100913.88
2022-09-04T07:41:46.148Z,100916.09
2022-09-04T07:45:07.769Z,100933.78
2022-09-04T07:48:32.525Z,100928.50
2022-09-04T07:51:45.764Z,100939.28
2022-09-04T07:55:07.416Z,100944.59
2022-09-04T07:58:36.692Z,100951.87
2022-09-04T08:01:47.203Z,100956.69
2022-09-04T08:05:15.099Z,100952.94
2022-09-04T08:08:23.540Z,100951.66
2022-09-04T08:11:38.064Z,100953.62
2022-09-04T08:14:54.317Z,100956.41
2022-09-04T08:18:09.505Z,100956.88
2022-09-04T08:21:39.947Z,100951.94
2022-09-04T08:25:02.240Z,100958.47
2022-09-04T08:28:35.071Z,100950.06
2022-09-04T08:32:05.963Z,100956.59
2022-09-04T08:35:32.073Z,100941.87
2022-09-04T08:38:48.656Z,100939.94
2022-09-04T08:41:57.247Z,100930.00
2022-09-04T08:45:42.182Z,100927.84
2022-09-04T08:49:11.706Z,100921.22
2022-09-04T08:52:33.917Z,100929.66
2022-09-04T08:55:58.516Z,100928.56
2022-09-04T08:59:37.028Z,100933.31
2022-09-04T09:02:54.196Z,100939.44
2022-09-04T09:06:13.258Z,100933.62
2022-09-04T09:10:04.419Z,100933.34
2022-09-04T09:13:29.252Z,100942.84
2022-09-04T09:16:47.009Z,100931.50
2022-09-04T09:20:00.225Z,100949.47
2022-09-04T09:23:41.585Z,100945.87
2022-09-04T09:26:44.898Z,100953.50
2022-09-04T09:29:57.678Z,100955.03
2022-09-04T09:33:18.812Z,100952.53
2022-09-04T09:36:29.970Z,100975.59
2022-09-04T09:40:21.909Z,100963.09
2022-09-04T09:44:00.927Z,100972.22
2022-09-04T09:47:15.712Z,100959.59
2022-09-04T09:50:36.475Z,100969.09
2022-09-04T09:54:16.607Z,100963.66
2022-09-04T09:57:33.356Z,100964.59
2022-09-04T10:01:14.593Z,100964.25
2022-09-04T10:04:34.243Z,100959.91
2022-09-04T10:08:00.439Z,100967.31
2022-09-04T10:11:18.730Z,100970.78
2022-09-04T10:14:36.240Z,100968.59
2022-09-04T10:18:04.182Z,100969.06
2022-09-04T10:21:12.404Z,100967.72
2022-09-04T10:24:33.801Z,100964.69
2022-09-04T10:28:10.055Z,100962.19
2022-09-04T10:31:31.508Z,100959.56
2022-09-04T10:34:34.241Z,100959.84
2022-09-04T10:38:07.232Z,100971.72
2022-09-04T10:41:26.329Z,100955.00
2022-09-04T10:44:50.901Z,100952.94
2022-09-04T10:48:44.096Z,100952.37
2022-09-04T10:52:09.392Z,100953.47
2022-09-04T10:55:33.190Z,100953.56
2022-09-04T10:58:49.133Z,100960.88
2022-09-04T11:02:02.634Z,100958.41
2022-09-04T11:05:23.549Z,100946.66
2022-09-04T11:08:44.351Z,100935.53
2022-09-04T11:11:56.021Z,100940.59
2022-09-04T11:15:35.751Z,100937.09
2022-09-04T11:19:03.684Z,100935.50
2022-09-04T11:22:24.604Z,100936.66
2022-09-04T11:25:52.202Z,100934.97
2022-09-04T11:29:27.484Z,100937.31
2022-09-04T11:32:48.716Z,100941.50
2022-09-04T11:36:21.949Z,100935.78
2022-09-04T11:40:06.353Z,100943.03
2022-09-04T11:43:44.567Z,100949.81
2022-09-04T11:47:19.933Z,100942.63
2022-09-04T11:51:01.525Z,100938.59
2022-09-04T11:54:34.791Z,100941.25
2022-09-04T11:57:45.033Z,100935.84
2022-09-04T12:01:10.222Z,100933.53
2022-09-04T12:04:28.536Z,100928.75
2022-09-04T12:07:45.914Z,100925.28
2022-09-04T12:11:16.366Z,100907.56
2022-09-04T12:14:52.800Z,100900.03
2022-09-04T12:18:01.838Z,100903.28
2022-09-04T12:21:53.834Z,100904.19
2022-09-04T12:25:05.519Z,100908.66
2022-09-04T12:28:11.147Z,100905.66
2022-09-04T12:31:23.128Z,100906.66
2022-09-04T12:34:38.024Z,100913.81
2022-09-04T12:38:09.028Z,100898.37
2022-09-04T12:41:29.512Z,100896.03
2022-09-04T12:45:10.040Z,100894.31
2022-09-04T12:48:33.130Z,100896.97
2022-09-04T12:52:01.641Z,100882.53
2022-09-04T12:55:46.035Z,100889.19
2022-09-04T12:58:52.367Z,100888.19
2022-09-04T13:02:24.271Z,100888.31
2022-09-04T13:05:52.821Z,100886.47
2022-09-04T13:09:08.646Z,100878.75
2022-09-04T13:12:17.656Z,100889.50
2022-09-04T13:15:37.256Z,100897.03
2022-09-04T13:19:00.516Z,100898.16
2022-09-04T13:22:12.637Z,100894.78
2022-09-04T13:25:32.058Z,100895.78
2022-09-04T13:29:16.432Z,100892.59
2022-09-04T13:32:46.959Z,100900.03
2022-09-04T13:35:57.060Z,100888.53
2022-09-04T13:39:18.604Z,100892.94
2022-09-04T13:42:52.355Z,100893.03
2022-09-04T13:46:00.261Z,100891.56
2022-09-04T13:49:10.948Z,100886.12
2022-09-04T13:52:34.680Z,100884.34
2022-09-04T13:55:49.884Z,100882.81
2022-09-04T13:58:58.981Z,100880.81
2022-09-04T14:02:08.826Z,100877.94
2022-09-04T14:05:14.495Z,100871.88
2022-09-04T14:08:17.968Z,100882.31
2022-09-04T14:11:39.376Z,100880.53
2022-09-04T14:14:44.622Z,100898.84
2022-09-04T14:18:03.123Z,100894.81
2022-09-04T14:21:17.905Z,100892.00
2022-09-04T14:24:35.031Z,100890.06
2022-09-04T14:27:46.908Z,100888.41
2022-09-04T14:31:02.292Z,100889.34
2022-09-04T14:34:36.290Z,100884.91
2022-09-04T14:38:07.129Z,100883.88
2022-09-04T14:41:36.227Z,100880.38
2022-09-04T14:45:04.023Z,100885.69
2022-09-04T14:48:11.979Z,100885.19
2022-09-04T14:51:31.317Z,100884.47
2022-09-04T14:54:39.431Z,100873.44
2022-09-04T14:57:59.465Z,100875.31
2022-09-04T15:01:07.937Z,100874.34
2022-09-04T15:04:30.522Z,100869.44
2022-09-04T15:07:44.527Z,100856.06
2022-09-04T15:10:54.796Z,100867.94
2022-09-04T15:14:05.039Z,100864.81
2022-09-04T15:17:13.016Z,100850.87
2022-09-04T15:20:22.695Z,100867.87
2022-09-04T15:23:36.573Z,100864.56
2022-09-04T15:26:54.848Z,100863.13
2022-09-04T15:30:11.904Z,100864.81
2022-09-04T15:33:19.912Z,100861.50
2022-09-04T15:36:24.565Z,100849.28
2022-09-04T15:39:36.841Z,100861.41
2022-09-04T15:42:56.684Z,100864.44
2022-09-04T15:46:05.685Z,100857.06
2022-09-04T15:49:39.899Z,100859.22
2022-09-04T15:52:44.498Z,100869.78
2022-09-04T15:56:06.306Z,100858.94
2022-09-04T15:59:18.493Z,100869.44
2022-09-04T16:02:59.412Z,100865.31
2022-09-04T16:06:31.757Z,100868.03
2022-09-04T16:09:45.460Z,100867.34
2022-09-04T16:12:58.237Z,100865.78
2022-09-04T16:16:12.530Z,100859.63
2022-09-04T16:19:32.671Z,100871.72
2022-09-04T16:23:00.761Z,100870.16
2022-09-04T16:26:17.552Z,100867.91
2022-09-04T16:29:30.910Z,100875.81
2022-09-04T16:32:35.371Z,100877.53
2022-09-04T16:35:43.087Z,100870.91
2022-09-04T16:38:47.620Z,100871.50
2022-09-04T16:41:56.723Z,100884.87
2022-09-04T16:45:18.304Z,100886.50
2022-09-04T16:48:39.904Z,100885.81
2022-09-04T16:51:42.753Z,100863.59
2022-09-04T16:54:50.652Z,100899.44
2022-09-04T16:58:07.239Z,100898.78
2022-09-04T17:01:31.027Z,100909.84
2022-09-04T17:04:44.365Z,100904.97
2022-09-04T17:08:16.338Z,100903.62
2022-09-04T17:11:33.539Z,100911.22
2022-09-04T17:14:47.190Z,100917.44
2022-09-04T17:17:53.812Z,100899.84
2022-09-04T17:25:35.431Z,100912.25
2022-09-04T17:29:15.821Z,100919.59
2022-09-04T17:29:47.107Z,100928.50
2022-09-04T17:37:13.350Z,100937.19
2022-09-04T17:40:49.263Z,100947.81
2022-09-04T17:40:56.304Z,100948.44
2022-09-04T17:44:02.935Z,100938.00
2022-09-04T17:47:42.944Z,100959.88
2022-09-04T17:51:00.852Z,100969.88
2022-09-04T17:54:12.031Z,100954.88
2022-09-04T17:57:26.423Z,100964.00
2022-09-04T18:01:15.015Z,100965.66
2022-09-04T18:04:39.671Z,100969.66
2022-09-04T18:08:09.189Z,100981.59
2022-09-04T18:11:20.729Z,100987.22
2022-09-04T18:14:38.982Z,100997.19
2022-09-04T18:17:45.125Z,100996.06
2022-09-04T18:20:57.611Z,101001.62
2022-09-04T18:24:35.711Z,101007.50
2022-09-04T18:27:48.923Z,101005.91
2022-09-04T18:37:07.302Z,101014.22
2022-09-04T18:37:18.212Z,101018.94
2022-09-04T18:38:01.600Z,101029.63
2022-09-04T18:45:50.342Z,101017.41
2022-09-04T18:50:29.133Z,101020.50
2022-09-04T18:50:45.735Z,101028.06
2022-09-04T18:51:58.190Z,101029.28
2022-09-04T18:55:13.580Z,101015.91
2022-09-04T18:58:50.143Z,101042.06
2022-09-04T19:02:18.718Z,101028.97
2022-09-04T19:05:36.456Z,101041.22
2022-09-04T19:08:51.448Z,101034.50
2022-09-04T19:12:03.336Z,101044.81
2022-09-04T19:15:22.614Z,101045.22
2022-09-04T19:18:43.657Z,101040.87
2022-09-04T19:21:58.569Z,101048.00
2022-09-04T19:25:19.164Z,101043.72
2022-09-04T19:28:52.639Z,101061.19
2022-09-04T19:32:06.092Z,101056.34
2022-09-04T19:35:30.127Z,101062.31
2022-09-04T19:45:55.416Z,101061.53
2022-09-04T19:46:09.186Z,101035.91
2022-09-04T19:46:13.768Z,101054.44
2022-09-04T19:51:24.247Z,101052.00
2022-09-04T19:53:30.004Z,101053.16
2022-09-04T19:57:32.973Z,101061.06
2022-09-04T20:00:38.376Z,101051.13
2022-09-04T20:03:45.867Z,101054.47
2022-09-04T20:06:54.600Z,101054.94
2022-09-04T20:10:01.868Z,101055.34
2022-09-04T20:13:16.823Z,101060.97
2022-09-04T20:16:31.793Z,101066.91
2022-09-04T20:19:52.423Z,101063.69
2022-09-04T20:23:34.287Z,101062.19
2022-09-04T20:26:56.296Z,101054.06
2022-09-04T20:30:07.579Z,101071.00
2022-09-04T20:33:19.147Z,101068.31
2022-09-04T20:36:29.356Z,101060.84
2022-09-04T20:39:41.897Z,101062.44
2022-09-04T20:43:03.529Z,101076.28
2022-09-04T20:52:43.864Z,101087.69
2022-09-04T20:53:00.564Z,101088.84
2022-09-04T20:54:04.903Z,101077.44
2022-09-04T21:00:23.600Z,101093.66
2022-09-04T21:03:17.247Z,101088.50
2022-09-04T21:04:34.871Z,101075.00
2022-09-04T21:08:15.879Z,101098.31
2022-09-04T21:11:40.499Z,101079.81
2022-09-04T21:14:49.475Z,101098.75
2022-09-04T21:18:07.379Z,101102.72
2022-09-04T21:21:34.880Z,101098.91
2022-09-04T21:24:59.764Z,101113.22
2022-09-04T21:28:33.643Z,101121.13
2022-09-04T21:31:44.027Z,101120.34
2022-09-04T21:35:01.761Z,101120.34
2022-09-04T21:38:12.620Z,101130.31
2022-09-04T21:41:15.247Z,101119.16
2022-09-04T21:44:30.024Z,101126.72
2022-09-04T21:47:44.734Z,101131.47
2022-09-04T21:51:18.734Z,101114.06
2022-09-04T21:54:37.841Z,101130.72
2022-09-04T22:02:29.760Z,101139.88
2022-09-04T22:02:35.102Z,101136.28
2022-09-04T22:05:32.339Z,101121.22
2022-09-04T22:13:28.627Z,101102.66
2022-09-04T22:13:43.201Z,101129.59
2022-09-04T22:16:09.413Z,101112.25
2022-09-04T22:19:26.835Z,101118.16
2022-09-04T22:22:49.949Z,101126.06
2022-09-04T22:26:23.263Z,101126.06
2022-09-04T22:30:01.801Z,101132.44
2022-09-04T22:33:32.510Z,101120.91
2022-09-04T22:37:12.558Z,101120.50
2022-09-04T22:40:56.650Z,101130.44
2022-09-04T22:44:24.276Z,101122.19
2022-09-04T22:47:36.431Z,101119.13
2022-09-04T22:51:03.703Z,101125.53
2022-09-04T22:54:35.800Z,101126.47
2022-09-04T22:57:43.855Z,101121.37
2022-09-04T23:01:35.663Z,101129.72
2022-09-04T23:04:57.394Z,101121.47
2022-09-04T23:13:48.454Z,101124.66
2022-09-04T23:14:02.934Z,101123.53
2022-09-04T23:15:59.247Z,101128.69
2022-09-04T23:25:58.170Z,101124.34
2022-09-04T23:26:43.938Z,101118.78
2022-09-04T23:26:58.283Z,101121.94
2022-09-04T23:30:25.206Z,101121.13
2022-09-04T23:34:08.007Z,101117.22
2022-09-04T23:38:00.471Z,101115.66
2022-09-04T23:41:24.796Z,101116.06
2022-09-04T23:44:55.768Z,101113.31
2022-09-04T23:48:10.073Z,101110.94
2022-09-04T23:51:23.039Z,101118.06
2022-09-04T23:54:41.881Z,101113.69
2022-09-04T23:57:55.896Z,101107.75
